sensor_id;sensor_type;location;lat;lon;timestamp;temperature;humidity
18091;DHT22;9172;49.948;9.208;2022-11-20T00:00:26;3.20;99.90
18091;DHT22;9172;49.948;9.208;2022-11-20T00:02:56;3.20;99.90
18091;DHT22;9172;49.948;9.208;2022-11-20T00:05:25;3.20;99.90
18091;DHT22;9172;49.948;9.208;2022-11-20T00:07:53;3.20;99.90
18091;DHT22;9172;49.948;9.208;2022-11-20T00:10:22;3.80;99.90
18091;DHT22;9172;49.948;9.208;2022-11-20T00:12:51;3.20;99.90
18091;DHT22;9172;49.948;9.208;2022-11-20T00:15:19;3.20;99.90
18091;DHT22;9172;49.948;9.208;2022-11-20T00:17:48;3.20;99.90
18091;DHT22;9172;49.948;9.208;2022-11-20T00:20:17;3.20;99.90
18091;DHT22;9172;49.948;9.208;2022-11-20T00:22:46;3.20;99.90
18091;DHT22;9172;49.948;9.208;2022-11-20T00:25:15;3.20;99.90
18091;DHT22;9172;49.948;9.208;2022-11-20T00:27:44;3.00;99.90
18091;DHT22;9172;49.948;9.208;2022-11-20T00:32:42;2.60;99.90
18091;DHT22;9172;49.948;9.208;2022-11-20T00:35:11;2.50;99.90
18091;DHT22;9172;49.948;9.208;2022-11-20T00:37:41;2.60;99.90
18091;DHT22;9172;49.948;9.208;2022-11-20T00:40:12;2.50;99.90
18091;DHT22;9172;49.948;9.208;2022-11-20T00:42:41;2.60;99.90
18091;DHT22;9172;49.948;9.208;2022-11-20T00:45:10;2.70;99.90
18091;DHT22;9172;49.948;9.208;2022-11-20T00:47:40;2.80;99.90
18091;DHT22;9172;49.948;9.208;2022-11-20T00:50:09;2.90;99.90
18091;DHT22;9172;49.948;9.208;2022-11-20T00:52:38;2.90;99.90
18091;DHT22;9172;49.948;9.208;2022-11-20T00:55:07;3.00;99.90
18091;DHT22;9172;49.948;9.208;2022-11-20T00:57:36;3.00;99.90
18091;DHT22;9172;49.948;9.208;2022-11-20T01:00:08;3.10;99.90
18091;DHT22;9172;49.948;9.208;2022-11-20T01:02:38;3.10;99.90
18091;DHT22;9172;49.948;9.208;2022-11-20T01:05:07;3.10;99.90
18091;DHT22;9172;49.948;9.208;2022-11-20T01:07:36;3.10;99.90
18091;DHT22;9172;49.948;9.208;2022-11-20T01:10:06;3.10;99.90
18091;DHT22;9172;49.948;9.208;2022-11-20T01:12:37;3.10;99.90
18091;DHT22;9172;49.948;9.208;2022-11-20T01:15:07;3.20;99.90
18091;DHT22;9172;49.948;9.208;2022-11-20T01:17:35;3.20;99.90
18091;DHT22;9172;49.948;9.208;2022-11-20T01:20:09;3.20;99.90
18091;DHT22;9172;49.948;9.208;2022-11-20T01:22:38;3.20;99.90
18091;DHT22;9172;49.948;9.208;2022-11-20T01:25:09;3.20;99.90
18091;DHT22;9172;49.948;9.208;2022-11-20T01:27:37;3.20;99.90
18091;DHT22;9172;49.948;9.208;2022-11-20T01:30:08;3.20;99.90
18091;DHT22;9172;49.948;9.208;2022-11-20T01:32:38;3.20;99.90
18091;DHT22;9172;49.948;9.208;2022-11-20T01:35:07;3.30;99.90
18091;DHT22;9172;49.948;9.208;2022-11-20T01:37:37;3.20;99.90
18091;DHT22;9172;49.948;9.208;2022-11-20T01:40:07;3.20;99.90
18091;DHT22;9172;49.948;9.208;2022-11-20T01:42:37;3.20;99.90
18091;DHT22;9172;49.948;9.208;2022-11-20T01:45:42;3.10;99.90
18091;DHT22;9172;49.948;9.208;2022-11-20T01:48:12;3.10;99.90
18091;DHT22;9172;49.948;9.208;2022-11-20T01:50:42;3.10;99.90
18091;DHT22;9172;49.948;9.208;2022-11-20T01:55:58;3.00;99.90
18091;DHT22;9172;49.948;9.208;2022-11-20T01:58:30;2.90;99.90
18091;DHT22;9172;49.948;9.208;2022-11-20T02:00:59;2.90;99.90
18091;DHT22;9172;49.948;9.208;2022-11-20T02:03:28;3.00;99.90
18091;DHT22;9172;49.948;9.208;2022-11-20T02:06:01;3.00;99.90
18091;DHT22;9172;49.948;9.208;2022-11-20T02:08:30;3.00;99.90
18091;DHT22;9172;49.948;9.208;2022-11-20T02:10:59;2.80;99.90
18091;DHT22;9172;49.948;9.208;2022-11-20T02:13:28;2.80;99.90
18091;DHT22;9172;49.948;9.208;2022-11-20T02:16:18;2.70;99.90
18091;DHT22;9172;49.948;9.208;2022-11-20T02:18:49;2.60;99.90
18091;DHT22;9172;49.948;9.208;2022-11-20T02:24:21;2.50;99.90
18091;DHT22;9172;49.948;9.208;2022-11-20T02:26:53;2.50;99.90
18091;DHT22;9172;49.948;9.208;2022-11-20T02:29:26;2.70;99.90
18091;DHT22;9172;49.948;9.208;2022-11-20T02:31:57;2.80;99.90
18091;DHT22;9172;49.948;9.208;2022-11-20T02:34:28;2.90;99.90
18091;DHT22;9172;49.948;9.208;2022-11-20T02:36:58;2.90;99.90
18091;DHT22;9172;49.948;9.208;2022-11-20T02:39:28;3.00;99.90
18091;DHT22;9172;49.948;9.208;2022-11-20T02:41:57;3.00;99.90
18091;DHT22;9172;49.948;9.208;2022-11-20T02:44:26;3.10;99.90
18091;DHT22;9172;49.948;9.208;2022-11-20T02:46:57;3.10;99.90
18091;DHT22;9172;49.948;9.208;2022-11-20T02:49:26;3.10;99.90
18091;DHT22;9172;49.948;9.208;2022-11-20T02:51:56;3.10;99.90
18091;DHT22;9172;49.948;9.208;2022-11-20T02:54:25;3.20;99.90
18091;DHT22;9172;49.948;9.208;2022-11-20T02:56:55;3.10;99.90
18091;DHT22;9172;49.948;9.208;2022-11-20T02:59:23;2.90;99.90
18091;DHT22;9172;49.948;9.208;2022-11-20T03:01:53;2.90;99.90
18091;DHT22;9172;49.948;9.208;2022-11-20T03:04:22;3.00;99.90
18091;DHT22;9172;49.948;9.208;2022-11-20T03:06:51;3.10;99.90
18091;DHT22;9172;49.948;9.208;2022-11-20T03:09:21;3.10;99.90
18091;DHT22;9172;49.948;9.208;2022-11-20T03:11:50;3.20;99.90
18091;DHT22;9172;49.948;9.208;2022-11-20T03:14:19;3.20;99.90
18091;DHT22;9172;49.948;9.208;2022-11-20T03:16:48;3.20;99.90
18091;DHT22;9172;49.948;9.208;2022-11-20T03:19:16;3.20;99.90
18091;DHT22;9172;49.948;9.208;2022-11-20T03:21:45;3.20;99.90
18091;DHT22;9172;49.948;9.208;2022-11-20T03:24:14;3.20;99.90
18091;DHT22;9172;49.948;9.208;2022-11-20T03:26:43;3.20;99.90
18091;DHT22;9172;49.948;9.208;2022-11-20T03:29:12;3.20;99.90
18091;DHT22;9172;49.948;9.208;2022-11-20T03:31:41;3.20;99.90
18091;DHT22;9172;49.948;9.208;2022-11-20T03:34:12;3.10;99.90
18091;DHT22;9172;49.948;9.208;2022-11-20T03:36:41;3.00;99.90
18091;DHT22;9172;49.948;9.208;2022-11-20T03:39:11;3.00;99.90
18091;DHT22;9172;49.948;9.208;2022-11-20T03:41:41;3.00;99.90
18091;DHT22;9172;49.948;9.208;2022-11-20T03:44:12;3.10;99.90
18091;DHT22;9172;49.948;9.208;2022-11-20T03:46:41;3.00;99.90
18091;DHT22;9172;49.948;9.208;2022-11-20T03:49:10;2.90;99.90
18091;DHT22;9172;49.948;9.208;2022-11-20T03:51:38;2.90;99.90
18091;DHT22;9172;49.948;9.208;2022-11-20T03:54:08;2.70;99.90
18091;DHT22;9172;49.948;9.208;2022-11-20T03:56:38;2.60;99.90
18091;DHT22;9172;49.948;9.208;2022-11-20T03:59:09;2.60;99.90
18091;DHT22;9172;49.948;9.208;2022-11-20T04:01:38;2.60;99.90
18091;DHT22;9172;49.948;9.208;2022-11-20T04:04:07;2.70;99.90
18091;DHT22;9172;49.948;9.208;2022-11-20T04:06:37;2.90;99.90
18091;DHT22;9172;49.948;9.208;2022-11-20T04:09:06;2.90;99.90
18091;DHT22;9172;49.948;9.208;2022-11-20T04:11:36;3.00;99.90
18091;DHT22;9172;49.948;9.208;2022-11-20T04:14:06;3.10;99.90
18091;DHT22;9172;49.948;9.208;2022-11-20T04:16:38;3.10;99.90
18091;DHT22;9172;49.948;9.208;2022-11-20T04:19:27;3.10;99.90
18091;DHT22;9172;49.948;9.208;2022-11-20T04:21:55;3.10;99.90
18091;DHT22;9172;49.948;9.208;2022-11-20T04:24:26;3.10;99.90
18091;DHT22;9172;49.948;9.208;2022-11-20T04:26:54;3.10;99.90
18091;DHT22;9172;49.948;9.208;2022-11-20T04:29:23;2.90;99.90
18091;DHT22;9172;49.948;9.208;2022-11-20T04:31:53;2.80;99.90
18091;DHT22;9172;49.948;9.208;2022-11-20T04:34:22;2.80;99.90
18091;DHT22;9172;49.948;9.208;2022-11-20T04:36:52;2.90;99.90
18091;DHT22;9172;49.948;9.208;2022-11-20T04:39:20;2.90;99.90
18091;DHT22;9172;49.948;9.208;2022-11-20T04:41:49;3.00;99.90
18091;DHT22;9172;49.948;9.208;2022-11-20T04:44:20;3.10;99.90
18091;DHT22;9172;49.948;9.208;2022-11-20T04:46:48;3.10;99.90
18091;DHT22;9172;49.948;9.208;2022-11-20T04:49:18;3.20;99.90
18091;DHT22;9172;49.948;9.208;2022-11-20T04:51:48;3.30;99.90
18091;DHT22;9172;49.948;9.208;2022-11-20T04:54:18;3.30;99.90
18091;DHT22;9172;49.948;9.208;2022-11-20T04:56:48;3.30;99.90
18091;DHT22;9172;49.948;9.208;2022-11-20T04:59:18;3.30;99.90
18091;DHT22;9172;49.948;9.208;2022-11-20T05:01:47;3.40;99.90
18091;DHT22;9172;49.948;9.208;2022-11-20T05:04:16;3.40;99.90
18091;DHT22;9172;49.948;9.208;2022-11-20T05:06:46;3.40;99.90
18091;DHT22;9172;49.948;9.208;2022-11-20T05:09:15;3.50;99.90
18091;DHT22;9172;49.948;9.208;2022-11-20T05:11:44;3.50;99.90
18091;DHT22;9172;49.948;9.208;2022-11-20T05:14:13;3.50;99.90
18091;DHT22;9172;49.948;9.208;2022-11-20T05:16:41;3.50;99.90
18091;DHT22;9172;49.948;9.208;2022-11-20T05:19:10;3.50;99.90
18091;DHT22;9172;49.948;9.208;2022-11-20T05:21:40;3.50;99.90
18091;DHT22;9172;49.948;9.208;2022-11-20T05:24:09;3.50;99.90
18091;DHT22;9172;49.948;9.208;2022-11-20T05:26:37;3.40;99.90
18091;DHT22;9172;49.948;9.208;2022-11-20T05:29:09;3.40;99.90
18091;DHT22;9172;49.948;9.208;2022-11-20T05:31:39;3.40;99.90
18091;DHT22;9172;49.948;9.208;2022-11-20T05:34:09;3.40;99.90
18091;DHT22;9172;49.948;9.208;2022-11-20T05:36:38;3.40;99.90
18091;DHT22;9172;49.948;9.208;2022-11-20T05:39:06;3.40;99.90
18091;DHT22;9172;49.948;9.208;2022-11-20T05:41:36;3.50;99.90
18091;DHT22;9172;49.948;9.208;2022-11-20T05:44:05;3.50;99.90
18091;DHT22;9172;49.948;9.208;2022-11-20T05:46:34;3.50;99.90
18091;DHT22;9172;49.948;9.208;2022-11-20T05:49:02;3.50;99.90
18091;DHT22;9172;49.948;9.208;2022-11-20T05:51:31;3.60;99.90
18091;DHT22;9172;49.948;9.208;2022-11-20T05:54:00;3.60;99.90
18091;DHT22;9172;49.948;9.208;2022-11-20T05:56:29;3.60;99.90
18091;DHT22;9172;49.948;9.208;2022-11-20T05:58:58;3.60;99.90
18091;DHT22;9172;49.948;9.208;2022-11-20T06:01:27;3.60;99.90
18091;DHT22;9172;49.948;9.208;2022-11-20T06:03:56;3.60;99.90
18091;DHT22;9172;49.948;9.208;2022-11-20T06:06:26;3.60;99.90
18091;DHT22;9172;49.948;9.208;2022-11-20T06:08:55;3.60;99.90
18091;DHT22;9172;49.948;9.208;2022-11-20T06:11:26;3.50;99.90
18091;DHT22;9172;49.948;9.208;2022-11-20T06:13:55;3.50;99.90
18091;DHT22;9172;49.948;9.208;2022-11-20T06:16:26;3.50;99.90
18091;DHT22;9172;49.948;9.208;2022-11-20T06:18:54;3.50;99.90
18091;DHT22;9172;49.948;9.208;2022-11-20T06:21:23;3.50;99.90
18091;DHT22;9172;49.948;9.208;2022-11-20T06:23:54;3.50;99.90
18091;DHT22;9172;49.948;9.208;2022-11-20T06:26:24;3.50;99.90
18091;DHT22;9172;49.948;9.208;2022-11-20T06:28:53;3.50;99.90
18091;DHT22;9172;49.948;9.208;2022-11-20T06:31:24;3.50;99.90
18091;DHT22;9172;49.948;9.208;2022-11-20T06:33:54;3.50;99.90
18091;DHT22;9172;49.948;9.208;2022-11-20T06:36:24;3.50;99.90
18091;DHT22;9172;49.948;9.208;2022-11-20T06:38:55;3.50;99.90
18091;DHT22;9172;49.948;9.208;2022-11-20T06:41:25;3.60;99.90
18091;DHT22;9172;49.948;9.208;2022-11-20T06:43:56;3.60;99.90
18091;DHT22;9172;49.948;9.208;2022-11-20T06:46:25;3.60;99.90
18091;DHT22;9172;49.948;9.208;2022-11-20T06:48:56;3.60;99.90
18091;DHT22;9172;49.948;9.208;2022-11-20T06:51:26;3.60;99.90
18091;DHT22;9172;49.948;9.208;2022-11-20T06:53:55;3.60;99.90
18091;DHT22;9172;49.948;9.208;2022-11-20T06:56:23;3.60;99.90
18091;DHT22;9172;49.948;9.208;2022-11-20T06:58:53;3.60;99.90
18091;DHT22;9172;49.948;9.208;2022-11-20T07:01:22;3.60;99.90
18091;DHT22;9172;49.948;9.208;2022-11-20T07:03:50;3.60;99.90
18091;DHT22;9172;49.948;9.208;2022-11-20T07:06:20;3.70;99.90
18091;DHT22;9172;49.948;9.208;2022-11-20T07:08:50;3.70;99.90
18091;DHT22;9172;49.948;9.208;2022-11-20T07:11:19;3.70;99.90
18091;DHT22;9172;49.948;9.208;2022-11-20T07:13:48;3.60;99.90
18091;DHT22;9172;49.948;9.208;2022-11-20T07:16:17;3.60;99.90
18091;DHT22;9172;49.948;9.208;2022-11-20T07:18:48;3.60;99.90
18091;DHT22;9172;49.948;9.208;2022-11-20T07:21:17;3.60;99.90
18091;DHT22;9172;49.948;9.208;2022-11-20T07:23:46;3.60;99.90
18091;DHT22;9172;49.948;9.208;2022-11-20T07:26:15;3.70;99.90
18091;DHT22;9172;49.948;9.208;2022-11-20T07:28:45;3.50;99.90
18091;DHT22;9172;49.948;9.208;2022-11-20T07:31:15;3.50;99.90
18091;DHT22;9172;49.948;9.208;2022-11-20T07:33:44;3.50;99.90
18091;DHT22;9172;49.948;9.208;2022-11-20T07:36:14;3.50;99.90
18091;DHT22;9172;49.948;9.208;2022-11-20T07:38:43;3.60;99.90
18091;DHT22;9172;49.948;9.208;2022-11-20T07:41:12;3.60;99.90
18091;DHT22;9172;49.948;9.208;2022-11-20T07:43:41;3.60;99.90
18091;DHT22;9172;49.948;9.208;2022-11-20T07:46:10;3.60;99.90
18091;DHT22;9172;49.948;9.208;2022-11-20T07:48:39;3.60;99.90
18091;DHT22;9172;49.948;9.208;2022-11-20T07:51:08;3.60;99.90
18091;DHT22;9172;49.948;9.208;2022-11-20T07:53:38;3.60;99.90
18091;DHT22;9172;49.948;9.208;2022-11-20T07:56:07;3.60;99.90
18091;DHT22;9172;49.948;9.208;2022-11-20T07:58:36;3.60;99.90
18091;DHT22;9172;49.948;9.208;2022-11-20T08:01:08;3.60;99.90
18091;DHT22;9172;49.948;9.208;2022-11-20T08:03:36;3.60;99.90
18091;DHT22;9172;49.948;9.208;2022-11-20T08:06:07;3.60;99.90
18091;DHT22;9172;49.948;9.208;2022-11-20T08:08:37;3.50;99.90
18091;DHT22;9172;49.948;9.208;2022-11-20T08:11:07;3.50;99.90
18091;DHT22;9172;49.948;9.208;2022-11-20T08:13:54;3.50;99.90
18091;DHT22;9172;49.948;9.208;2022-11-20T08:16:44;3.40;99.90
18091;DHT22;9172;49.948;9.208;2022-11-20T08:19:13;3.20;99.90
18091;DHT22;9172;49.948;9.208;2022-11-20T08:21:43;3.10;99.90
18091;DHT22;9172;49.948;9.208;2022-11-20T08:24:13;3.10;99.90
18091;DHT22;9172;49.948;9.208;2022-11-20T08:26:42;3.10;99.90
18091;DHT22;9172;49.948;9.208;2022-11-20T08:29:10;3.20;99.90
18091;DHT22;9172;49.948;9.208;2022-11-20T08:31:39;3.30;99.90
18091;DHT22;9172;49.948;9.208;2022-11-20T08:34:09;3.30;99.90
18091;DHT22;9172;49.948;9.208;2022-11-20T08:36:37;3.30;99.90
18091;DHT22;9172;49.948;9.208;2022-11-20T08:39:07;3.20;99.90
18091;DHT22;9172;49.948;9.208;2022-11-20T08:41:36;3.20;99.90
18091;DHT22;9172;49.948;9.208;2022-11-20T08:44:06;3.30;99.90
18091;DHT22;9172;49.948;9.208;2022-11-20T08:46:37;3.40;99.90
18091;DHT22;9172;49.948;9.208;2022-11-20T08:49:07;3.50;99.90
18091;DHT22;9172;49.948;9.208;2022-11-20T08:51:36;3.60;99.90
18091;DHT22;9172;49.948;9.208;2022-11-20T08:54:06;3.60;99.90
18091;DHT22;9172;49.948;9.208;2022-11-20T08:56:35;3.70;99.90
18091;DHT22;9172;49.948;9.208;2022-11-20T08:59:04;3.70;99.90
18091;DHT22;9172;49.948;9.208;2022-11-20T09:01:33;3.70;99.90
18091;DHT22;9172;49.948;9.208;2022-11-20T09:04:02;3.80;99.90
18091;DHT22;9172;49.948;9.208;2022-11-20T09:06:33;3.80;99.90
18091;DHT22;9172;49.948;9.208;2022-11-20T09:09:01;3.80;99.90
18091;DHT22;9172;49.948;9.208;2022-11-20T09:11:31;3.80;99.90
18091;DHT22;9172;49.948;9.208;2022-11-20T09:14:01;3.80;99.90
18091;DHT22;9172;49.948;9.208;2022-11-20T09:16:30;3.90;99.90
18091;DHT22;9172;49.948;9.208;2022-11-20T09:18:59;3.90;99.90
18091;DHT22;9172;49.948;9.208;2022-11-20T09:21:28;3.90;99.90
18091;DHT22;9172;49.948;9.208;2022-11-20T09:23:58;4.00;99.90
18091;DHT22;9172;49.948;9.208;2022-11-20T09:26:27;4.00;99.90
18091;DHT22;9172;49.948;9.208;2022-11-20T09:28:56;4.00;99.90
18091;DHT22;9172;49.948;9.208;2022-11-20T09:31:25;4.00;99.90
18091;DHT22;9172;49.948;9.208;2022-11-20T09:33:55;4.00;99.90
18091;DHT22;9172;49.948;9.208;2022-11-20T09:36:24;4.00;99.90
18091;DHT22;9172;49.948;9.208;2022-11-20T09:38:54;4.00;99.90
18091;DHT22;9172;49.948;9.208;2022-11-20T09:41:44;4.10;99.90
18091;DHT22;9172;49.948;9.208;2022-11-20T09:44:21;4.10;99.90
18091;DHT22;9172;49.948;9.208;2022-11-20T09:46:53;4.20;99.90
18091;DHT22;9172;49.948;9.208;2022-11-20T09:49:27;4.20;99.90
18091;DHT22;9172;49.948;9.208;2022-11-20T09:57:12;4.30;99.90
18091;DHT22;9172;49.948;9.208;2022-11-20T09:59:43;4.30;99.90
18091;DHT22;9172;49.948;9.208;2022-11-20T10:02:19;4.30;99.90
18091;DHT22;9172;49.948;9.208;2022-11-20T10:04:51;4.20;99.90
18091;DHT22;9172;49.948;9.208;2022-11-20T10:07:24;4.20;99.90
18091;DHT22;9172;49.948;9.208;2022-11-20T10:09:55;4.20;99.90
18091;DHT22;9172;49.948;9.208;2022-11-20T10:12:28;4.20;99.90
18091;DHT22;9172;49.948;9.208;2022-11-20T10:17:58;4.20;99.90
18091;DHT22;9172;49.948;9.208;2022-11-20T10:20:28;4.10;99.90
18091;DHT22;9172;49.948;9.208;2022-11-20T10:23:25;4.20;99.90
18091;DHT22;9172;49.948;9.208;2022-11-20T10:25:58;4.10;99.90
18091;DHT22;9172;49.948;9.208;2022-11-20T10:28:40;4.00;99.90
18091;DHT22;9172;49.948;9.208;2022-11-20T10:31:12;4.00;99.90
18091;DHT22;9172;49.948;9.208;2022-11-20T10:33:44;3.90;99.90
18091;DHT22;9172;49.948;9.208;2022-11-20T10:36:16;3.90;99.90
18091;DHT22;9172;49.948;9.208;2022-11-20T10:38:48;3.90;99.90
18091;DHT22;9172;49.948;9.208;2022-11-20T10:41:21;4.00;99.90
18091;DHT22;9172;49.948;9.208;2022-11-20T10:43:59;4.00;99.90
18091;DHT22;9172;49.948;9.208;2022-11-20T10:46:32;4.00;99.90
18091;DHT22;9172;49.948;9.208;2022-11-20T10:49:01;4.10;99.90
18091;DHT22;9172;49.948;9.208;2022-11-20T10:51:35;4.20;99.90
18091;DHT22;9172;49.948;9.208;2022-11-20T10:54:15;4.10;99.90
18091;DHT22;9172;49.948;9.208;2022-11-20T10:56:46;4.10;99.90
18091;DHT22;9172;49.948;9.208;2022-11-20T11:02:22;4.20;99.90
18091;DHT22;9172;49.948;9.208;2022-11-20T11:04:51;4.20;99.90
18091;DHT22;9172;49.948;9.208;2022-11-20T11:07:24;4.20;99.90
18091;DHT22;9172;49.948;9.208;2022-11-20T11:09:55;4.30;99.90
18091;DHT22;9172;49.948;9.208;2022-11-20T11:12:25;4.40;99.90
18091;DHT22;9172;49.948;9.208;2022-11-20T11:14:56;4.40;99.90
18091;DHT22;9172;49.948;9.208;2022-11-20T11:17:27;4.40;99.90
18091;DHT22;9172;49.948;9.208;2022-11-20T11:20:06;4.50;99.90
18091;DHT22;9172;49.948;9.208;2022-11-20T11:22:43;4.40;99.90
18091;DHT22;9172;49.948;9.208;2022-11-20T11:25:21;4.40;99.90
18091;DHT22;9172;49.948;9.208;2022-11-20T11:27:52;4.40;99.90
18091;DHT22;9172;49.948;9.208;2022-11-20T11:30:23;4.40;99.90
18091;DHT22;9172;49.948;9.208;2022-11-20T11:33:02;4.40;99.90
18091;DHT22;9172;49.948;9.208;2022-11-20T11:35:32;4.40;99.90
18091;DHT22;9172;49.948;9.208;2022-11-20T11:38:06;4.50;99.90
18091;DHT22;9172;49.948;9.208;2022-11-20T11:40:35;4.50;99.90
18091;DHT22;9172;49.948;9.208;2022-11-20T11:43:16;4.50;99.90
18091;DHT22;9172;49.948;9.208;2022-11-20T11:46:13;4.60;99.90
18091;DHT22;9172;49.948;9.208;2022-11-20T11:48:40;4.60;99.90
18091;DHT22;9172;49.948;9.208;2022-11-20T11:51:10;4.50;99.90
18091;DHT22;9172;49.948;9.208;2022-11-20T11:53:41;4.50;99.90
18091;DHT22;9172;49.948;9.208;2022-11-20T11:56:12;4.50;99.90
18091;DHT22;9172;49.948;9.208;2022-11-20T11:58:45;4.50;99.90
18091;DHT22;9172;49.948;9.208;2022-11-20T12:01:26;4.50;99.90
18091;DHT22;9172;49.948;9.208;2022-11-20T12:04:00;4.60;99.90
18091;DHT22;9172;49.948;9.208;2022-11-20T12:06:31;4.60;99.90
18091;DHT22;9172;49.948;9.208;2022-11-20T12:09:04;4.70;99.90
18091;DHT22;9172;49.948;9.208;2022-11-20T12:14:14;4.70;99.90
18091;DHT22;9172;49.948;9.208;2022-11-20T12:19:28;4.80;99.90
18091;DHT22;9172;49.948;9.208;2022-11-20T12:24:45;4.70;99.90
18091;DHT22;9172;49.948;9.208;2022-11-20T12:27:49;4.70;99.90
18091;DHT22;9172;49.948;9.208;2022-11-20T12:30:19;4.70;99.90
18091;DHT22;9172;49.948;9.208;2022-11-20T12:36:19;4.70;99.90
18091;DHT22;9172;49.948;9.208;2022-11-20T12:38:59;4.80;99.90
18091;DHT22;9172;49.948;9.208;2022-11-20T12:41:40;4.80;99.90
18091;DHT22;9172;49.948;9.208;2022-11-20T12:44:37;4.70;99.90
18091;DHT22;9172;49.948;9.208;2022-11-20T12:47:27;4.80;99.90
18091;DHT22;9172;49.948;9.208;2022-11-20T12:52:42;4.80;99.90
18091;DHT22;9172;49.948;9.208;2022-11-20T12:55:27;4.90;99.90
18091;DHT22;9172;49.948;9.208;2022-11-20T12:57:58;5.00;99.90
18091;DHT22;9172;49.948;9.208;2022-11-20T13:00:28;5.00;99.90
18091;DHT22;9172;49.948;9.208;2022-11-20T13:03:21;5.00;99.90
18091;DHT22;9172;49.948;9.208;2022-11-20T13:05:53;5.00;99.90
18091;DHT22;9172;49.948;9.208;2022-11-20T13:08:24;5.00;99.90
18091;DHT22;9172;49.948;9.208;2022-11-20T13:10:57;5.00;99.90
18091;DHT22;9172;49.948;9.208;2022-11-20T13:13:31;5.00;99.90
18091;DHT22;9172;49.948;9.208;2022-11-20T13:16:04;5.10;99.90
18091;DHT22;9172;49.948;9.208;2022-11-20T13:18:36;5.10;99.90
18091;DHT22;9172;49.948;9.208;2022-11-20T13:21:15;5.10;99.90
18091;DHT22;9172;49.948;9.208;2022-11-20T13:23:44;5.10;99.90
18091;DHT22;9172;49.948;9.208;2022-11-20T13:26:19;5.10;99.90
18091;DHT22;9172;49.948;9.208;2022-11-20T13:28:59;5.10;99.90
18091;DHT22;9172;49.948;9.208;2022-11-20T13:31:32;5.10;99.90
18091;DHT22;9172;49.948;9.208;2022-11-20T13:34:04;5.10;99.90
18091;DHT22;9172;49.948;9.208;2022-11-20T13:36:34;5.10;99.90
18091;DHT22;9172;49.948;9.208;2022-11-20T13:39:05;5.00;99.90
18091;DHT22;9172;49.948;9.208;2022-11-20T13:41:35;5.10;99.90
18091;DHT22;9172;49.948;9.208;2022-11-20T13:44:13;5.00;99.90
18091;DHT22;9172;49.948;9.208;2022-11-20T13:46:44;5.10;99.90
18091;DHT22;9172;49.948;9.208;2022-11-20T13:49:20;5.00;99.90
18091;DHT22;9172;49.948;9.208;2022-11-20T13:51:50;5.10;99.90
18091;DHT22;9172;49.948;9.208;2022-11-20T13:54:49;5.10;99.90
18091;DHT22;9172;49.948;9.208;2022-11-20T13:57:38;5.20;99.90
18091;DHT22;9172;49.948;9.208;2022-11-20T14:00:12;5.20;99.90
18091;DHT22;9172;49.948;9.208;2022-11-20T14:02:42;5.20;99.90
18091;DHT22;9172;49.948;9.208;2022-11-20T14:05:18;5.20;99.90
18091;DHT22;9172;49.948;9.208;2022-11-20T14:07:48;5.30;99.90
18091;DHT22;9172;49.948;9.208;2022-11-20T14:10:22;5.20;99.90
18091;DHT22;9172;49.948;9.208;2022-11-20T14:12:51;5.20;99.90
18091;DHT22;9172;49.948;9.208;2022-11-20T14:15:32;5.20;99.90
18091;DHT22;9172;49.948;9.208;2022-11-20T14:18:11;5.20;99.90
18091;DHT22;9172;49.948;9.208;2022-11-20T14:20:42;5.20;99.90
18091;DHT22;9172;49.948;9.208;2022-11-20T14:23:11;5.20;99.90
18091;DHT22;9172;49.948;9.208;2022-11-20T14:25:44;5.20;99.90
18091;DHT22;9172;49.948;9.208;2022-11-20T14:28:19;5.20;99.90
18091;DHT22;9172;49.948;9.208;2022-11-20T14:30:49;5.20;99.90
18091;DHT22;9172;49.948;9.208;2022-11-20T14:33:18;5.20;99.90
18091;DHT22;9172;49.948;9.208;2022-11-20T14:35:51;5.20;99.90
18091;DHT22;9172;49.948;9.208;2022-11-20T14:38:23;5.20;99.90
18091;DHT22;9172;49.948;9.208;2022-11-20T14:40:52;5.20;99.90
18091;DHT22;9172;49.948;9.208;2022-11-20T14:43:24;5.20;99.90
18091;DHT22;9172;49.948;9.208;2022-11-20T14:45:58;5.20;99.90
18091;DHT22;9172;49.948;9.208;2022-11-20T14:48:31;5.20;99.90
18091;DHT22;9172;49.948;9.208;2022-11-20T14:51:01;5.20;99.90
18091;DHT22;9172;49.948;9.208;2022-11-20T14:53:29;5.20;99.90
18091;DHT22;9172;49.948;9.208;2022-11-20T14:56:00;5.20;99.90
18091;DHT22;9172;49.948;9.208;2022-11-20T14:58:31;5.20;99.90
18091;DHT22;9172;49.948;9.208;2022-11-20T15:01:02;5.20;99.90
18091;DHT22;9172;49.948;9.208;2022-11-20T15:03:33;5.20;99.90
18091;DHT22;9172;49.948;9.208;2022-11-20T15:06:03;5.20;99.90
18091;DHT22;9172;49.948;9.208;2022-11-20T15:08:33;5.20;99.90
18091;DHT22;9172;49.948;9.208;2022-11-20T15:11:02;5.20;99.90
18091;DHT22;9172;49.948;9.208;2022-11-20T15:13:33;5.20;99.90
18091;DHT22;9172;49.948;9.208;2022-11-20T15:16:03;5.20;99.90
18091;DHT22;9172;49.948;9.208;2022-11-20T15:18:36;5.20;99.90
18091;DHT22;9172;49.948;9.208;2022-11-20T15:21:09;5.10;99.90
18091;DHT22;9172;49.948;9.208;2022-11-20T15:23:37;5.20;99.90
18091;DHT22;9172;49.948;9.208;2022-11-20T15:26:06;5.20;99.90
18091;DHT22;9172;49.948;9.208;2022-11-20T15:28:37;5.20;99.90
18091;DHT22;9172;49.948;9.208;2022-11-20T15:31:09;5.30;99.90
18091;DHT22;9172;49.948;9.208;2022-11-20T15:33:39;5.30;99.90
18091;DHT22;9172;49.948;9.208;2022-11-20T15:36:08;5.20;99.90
18091;DHT22;9172;49.948;9.208;2022-11-20T15:38:38;5.20;99.90
18091;DHT22;9172;49.948;9.208;2022-11-20T15:41:07;5.10;99.90
18091;DHT22;9172;49.948;9.208;2022-11-20T15:43:38;5.20;99.90
18091;DHT22;9172;49.948;9.208;2022-11-20T15:46:09;5.20;99.90
18091;DHT22;9172;49.948;9.208;2022-11-20T15:48:41;5.20;99.90
18091;DHT22;9172;49.948;9.208;2022-11-20T15:51:17;5.30;99.90
18091;DHT22;9172;49.948;9.208;2022-11-20T15:53:46;5.20;99.90
18091;DHT22;9172;49.948;9.208;2022-11-20T15:56:15;5.20;99.90
18091;DHT22;9172;49.948;9.208;2022-11-20T15:58:44;5.20;99.90
18091;DHT22;9172;49.948;9.208;2022-11-20T16:01:15;5.30;99.90
18091;DHT22;9172;49.948;9.208;2022-11-20T16:03:45;5.20;99.90
18091;DHT22;9172;49.948;9.208;2022-11-20T16:06:16;5.30;99.90
18091;DHT22;9172;49.948;9.208;2022-11-20T16:08:45;5.30;99.90
18091;DHT22;9172;49.948;9.208;2022-11-20T16:11:15;5.30;99.90
18091;DHT22;9172;49.948;9.208;2022-11-20T16:13:50;5.30;99.90
18091;DHT22;9172;49.948;9.208;2022-11-20T16:16:39;5.30;99.90
18091;DHT22;9172;49.948;9.208;2022-11-20T16:19:28;5.30;99.90
18091;DHT22;9172;49.948;9.208;2022-11-20T16:21:58;5.30;99.90
18091;DHT22;9172;49.948;9.208;2022-11-20T16:24:30;5.30;99.90
18091;DHT22;9172;49.948;9.208;2022-11-20T16:34:52;5.40;99.90
18091;DHT22;9172;49.948;9.208;2022-11-20T16:37:22;5.40;99.90
18091;DHT22;9172;49.948;9.208;2022-11-20T16:39:52;5.50;99.90
18091;DHT22;9172;49.948;9.208;2022-11-20T16:42:23;5.50;99.90
18091;DHT22;9172;49.948;9.208;2022-11-20T16:44:52;5.50;99.90
18091;DHT22;9172;49.948;9.208;2022-11-20T16:47:21;5.60;99.90
18091;DHT22;9172;49.948;9.208;2022-11-20T16:49:50;7.10;99.90
18091;DHT22;9172;49.948;9.208;2022-11-20T16:52:19;5.60;99.90
18091;DHT22;9172;49.948;9.208;2022-11-20T16:54:47;5.60;99.90
18091;DHT22;9172;49.948;9.208;2022-11-20T16:57:17;5.60;99.90
18091;DHT22;9172;49.948;9.208;2022-11-20T16:59:46;5.60;99.90
18091;DHT22;9172;49.948;9.208;2022-11-20T17:02:16;5.60;99.90
18091;DHT22;9172;49.948;9.208;2022-11-20T17:04:44;5.70;99.90
18091;DHT22;9172;49.948;9.208;2022-11-20T17:07:15;5.70;99.90
18091;DHT22;9172;49.948;9.208;2022-11-20T17:09:43;5.70;99.90